Time;durP1;ratioP1;P1;durP2;ratioP2;P2;SDS_P1;SDS_P2;PMS_P1;PMS_P2;Temp;Humidity;BMP_temperature;BMP_pressure;BME280_temperature;BME280_humidity;BME280_pressure;Samples;Min_cycle;Max_cycle;Signal;HPM_P1;HPM_P2
2022/11/18 00:01:34;;;;;;;17.95;11.70;;;5.60;99.90;;;;;;5004105;28;20424;-69
2022/11/18 00:04:00;;;;;;;18.35;12.18;;;5.60;99.90;;;;;;5002273;28;20506;-69
2022/11/18 00:06:27;;;;;;;19.05;12.98;;;5.50;99.90;;;;;;5006213;28;20052;-69
2022/11/18 00:08:53;;;;;;;18.98;13.07;;;5.50;99.90;;;;;;5004208;28;20563;-69
2022/11/18 00:14:19;;;;;;;21.38;12.52;;;5.50;99.90;;;;;;5032288;28;20058;-68
2022/11/18 00:16:56;;;;;;;17.90;12.32;;;5.40;99.90;;;;;;4986008;28;20121;-69
2022/11/18 00:19:42;;;;;;;19.02;12.77;;;5.40;99.90;;;;;;4999960;28;20081;-69
2022/11/18 00:22:10;;;;;;;17.55;11.93;;;5.40;99.90;;;;;;5005775;28;20061;-71
2022/11/18 00:24:37;;;;;;;19.25;12.00;;;5.50;99.90;;;;;;5002958;28;20487;-69
2022/11/18 00:27:03;;;;;;;17.17;11.50;;;5.50;99.90;;;;;;5006318;28;20053;-68
2022/11/18 00:29:30;;;;;;;19.63;12.80;;;5.50;99.90;;;;;;5000157;28;20042;-68
2022/11/18 00:31:56;;;;;;;20.30;11.85;;;5.50;99.90;;;;;;5005436;28;20055;-70
2022/11/18 00:34:24;;;;;;;19.83;13.02;;;5.50;99.90;;;;;;4988876;28;20045;-68
2022/11/18 00:36:49;;;;;;;20.77;12.63;;;5.50;99.90;;;;;;5002644;28;20041;-67
2022/11/18 00:39:17;;;;;;;20.05;12.02;;;5.40;99.90;;;;;;5004664;28;20357;-67
2022/11/18 00:44:30;;;;;;;21.65;13.07;;;5.40;99.90;;;;;;5004468;28;20050;-68
2022/11/18 00:46:56;;;;;;;20.48;13.30;;;5.40;99.90;;;;;;5005145;28;20048;-69
2022/11/18 00:49:22;;;;;;;21.40;13.07;;;5.40;99.90;;;;;;5005759;28;20053;-68
2022/11/18 00:51:47;;;;;;;23.40;13.60;;;5.40;99.90;;;;;;5003124;28;20172;-68
2022/11/18 00:54:13;;;;;;;18.35;12.95;;;5.40;99.90;;;;;;5020129;28;20081;-68
2022/11/18 00:56:39;;;;;;;19.30;13.18;;;5.40;99.90;;;;;;5006165;28;20127;-68
2022/11/18 00:59:04;;;;;;;19.35;13.15;;;5.50;99.90;;;;;;5005276;28;20052;-68
2022/11/18 01:01:30;;;;;;;19.52;13.38;;;5.50;99.90;;;;;;5005234;28;20045;-69
2022/11/18 01:03:57;;;;;;;17.33;12.48;;;5.50;99.90;;;;;;5005232;28;20121;-69
2022/11/18 01:06:23;;;;;;;19.00;12.50;;;5.50;99.90;;;;;;4983765;28;20125;-69
2022/11/18 01:08:49;;;;;;;16.33;12.02;;;5.40;99.90;;;;;;5005646;28;20521;-69
2022/11/18 01:13:59;;;;;;;16.92;11.40;;;5.40;99.90;;;;;;5005945;28;20356;-69
2022/11/18 01:16:25;;;;;;;19.48;13.02;;;5.50;99.90;;;;;;5003937;28;20041;-69
2022/11/18 01:18:51;;;;;;;21.48;12.27;;;5.50;99.90;;;;;;5003808;28;20046;-69
2022/11/18 01:21:18;;;;;;;16.38;11.75;;;5.50;99.90;;;;;;5004982;28;20052;-69
2022/11/18 01:23:44;;;;;;;16.98;12.13;;;5.40;99.90;;;;;;5005088;28;20085;-69
2022/11/18 01:26:11;;;;;;;18.33;11.88;;;5.40;99.90;;;;;;5001250;28;20076;-69
2022/11/18 01:28:36;;;;;;;17.45;12.15;;;5.40;99.90;;;;;;4988908;28;20049;-68
2022/11/18 01:31:07;;;;;;;20.58;12.88;;;5.40;99.90;;;;;;4971960;28;20121;-68
2022/11/18 01:33:33;;;;;;;18.63;11.95;;;5.40;99.90;;;;;;4988811;28;20073;-69
2022/11/18 01:35:59;;;;;;;18.75;13.20;;;5.40;99.90;;;;;;5004209;28;20069;-68
2022/11/18 01:38:24;;;;;;;18.80;12.20;;;5.40;99.90;;;;;;5006135;28;20042;-69
2022/11/18 01:40:50;;;;;;;18.70;12.55;;;5.50;99.90;;;;;;5003638;28;20056;-69
2022/11/18 01:43:17;;;;;;;19.13;12.48;;;5.50;99.90;;;;;;5005909;28;20121;-69
2022/11/18 01:45:44;;;;;;;18.10;12.93;;;5.40;99.90;;;;;;5004833;28;20624;-70
2022/11/18 01:48:39;;;;;;;18.10;12.20;;;5.40;99.90;;;;;;5004317;28;20112;-69
2022/11/18 01:51:08;;;;;;;20.35;13.50;;;5.50;99.90;;;;;;5004603;28;20049;-69
2022/11/18 01:53:39;;;;;;;20.80;13.20;;;5.40;99.90;;;;;;5007741;28;20140;-68
2022/11/18 01:56:07;;;;;;;18.38;12.57;;;5.20;99.90;;;;;;5009279;28;20553;-68
2022/11/18 01:58:38;;;;;;;20.63;13.23;;;5.30;99.90;;;;;;5009574;28;20045;-69
2022/11/18 02:01:04;;;;;;;19.55;12.85;;;5.30;99.90;;;;;;5017223;28;20050;-69
2022/11/18 02:03:30;;;;;;;21.27;14.15;;;5.30;99.90;;;;;;5005320;28;20471;-69
2022/11/18 02:05:56;;;;;;;20.30;13.27;;;5.30;99.90;;;;;;5008663;28;20038;-68
2022/11/18 02:08:22;;;;;;;21.50;14.02;;;5.30;99.90;;;;;;5002718;28;20076;-69
2022/11/18 02:10:47;;;;;;;22.50;14.48;;;5.30;99.90;;;;;;5008374;28;20185;-69
2022/11/18 02:13:14;;;;;;;21.83;13.82;;;5.30;99.90;;;;;;5004217;28;20062;-69
2022/11/18 02:16:02;;;;;;;19.98;13.48;;;5.20;99.90;;;;;;5009277;28;20054;-68
2022/11/18 02:18:52;;;;;;;19.38;13.60;;;5.20;99.90;;;;;;5009429;28;20111;-69
2022/11/18 02:21:50;;;;;;;19.52;13.20;;;5.30;99.90;;;;;;5003075;28;20042;-69
2022/11/18 02:24:27;;;;;;;22.48;14.45;;;5.30;99.90;;;;;;5003921;28;20124;-70
2022/11/18 02:27:23;;;;;;;22.60;14.55;;;5.20;99.90;;;;;;5007556;28;20060;-70
2022/11/18 02:29:58;;;;;;;20.90;14.05;;;5.10;99.90;;;;;;5006933;28;20057;-70
2022/11/18 02:32:48;;;;;;;21.27;13.43;;;5.00;99.90;;;;;;5014878;28;20050;-70
2022/11/18 02:35:31;;;;;;;21.67;14.45;;;5.10;99.90;;;;;;5008048;28;20046;-69
2022/11/18 02:38:01;;;;;;;21.80;13.43;;;5.20;99.90;;;;;;5000605;28;20070;-68
2022/11/18 02:40:47;;;;;;;20.95;14.65;;;5.10;99.90;;;;;;5023442;28;20517;-69
2022/11/18 02:43:14;;;;;;;21.63;14.07;;;5.10;99.90;;;;;;5008596;28;20053;-69
2022/11/18 02:45:42;;;;;;;21.98;14.77;;;5.20;99.90;;;;;;4989748;28;20077;-69
2022/11/18 02:48:09;;;;;;;23.38;14.65;;;5.20;99.90;;;;;;5007436;28;20053;-69
2022/11/18 02:50:34;;;;;;;24.52;15.55;;;5.10;99.90;;;;;;5008702;28;20069;-68
2022/11/18 02:53:02;;;;;;;24.08;15.20;;;5.10;99.90;;;;;;5020100;28;20081;-68
2022/11/18 02:55:28;;;;;;;25.20;16.00;;;5.10;99.90;;;;;;5010513;28;20054;-68
2022/11/18 02:57:56;;;;;;;26.45;16.52;;;5.00;99.90;;;;;;5010368;28;20077;-69
2022/11/18 03:00:22;;;;;;;28.27;16.95;;;4.90;99.90;;;;;;5010899;28;20050;-69
2022/11/18 03:02:48;;;;;;;25.73;15.93;;;5.00;99.90;;;;;;4992464;28;20085;-69
2022/11/18 03:05:29;;;;;;;26.90;17.05;;;5.00;99.90;;;;;;4993716;28;20049;-69
2022/11/18 03:07:56;;;;;;;26.23;16.40;;;5.00;99.90;;;;;;4993992;28;20045;-70
2022/11/18 03:10:22;;;;;;;25.95;16.00;;;5.10;99.90;;;;;;4991537;28;20050;-69
2022/11/18 03:13:05;;;;;;;27.92;15.57;;;5.00;99.90;;;;;;5008967;28;20506;-70
2022/11/18 03:15:36;;;;;;;23.67;15.75;;;5.00;99.90;;;;;;5010030;28;20061;-69
2022/11/18 03:18:21;;;;;;;26.25;16.38;;;5.00;99.90;;;;;;5011144;28;20985;-70
2022/11/18 03:20:49;;;;;;;30.10;15.80;;;5.00;99.90;;;;;;5005547;28;20066;-69
2022/11/18 03:23:35;;;;;;;28.27;16.58;;;5.00;99.90;;;;;;5009689;28;20065;-70
2022/11/18 03:26:11;;;;;;;27.92;18.02;;;5.00;99.90;;;;;;4994687;28;20097;-69
2022/11/18 03:29:07;;;;;;;29.00;17.27;;;4.90;99.90;;;;;;5010393;28;20144;-69
2022/11/18 03:31:39;;;;;;;28.38;17.70;;;5.00;99.90;;;;;;5006941;28;20141;-68
2022/11/18 03:34:26;;;;;;;28.63;18.17;;;4.90;99.90;;;;;;5002826;28;20120;-68
2022/11/18 03:36:56;;;;;;;29.52;17.58;;;4.90;99.90;;;;;;4977084;28;20076;-69
2022/11/18 03:39:21;;;;;;;33.75;17.83;;;4.80;99.90;;;;;;5007509;28;20112;-70
2022/11/18 03:41:57;;;;;;;29.83;19.10;;;4.80;99.90;;;;;;5010274;28;20042;-69
2022/11/18 03:44:28;;;;;;;29.88;17.88;;;4.80;99.90;;;;;;4993971;28;20451;-69
2022/11/18 03:47:16;;;;;;;31.70;18.20;;;4.70;99.90;;;;;;4992443;28;20049;-70
2022/11/18 03:49:44;;;;;;;32.33;18.33;;;4.70;99.90;;;;;;4993948;28;20112;-70
2022/11/18 03:52:14;;;;;;;28.90;18.20;;;4.80;99.90;;;;;;5009607;28;20042;-70
2022/11/18 04:04:49;;;;;;;28.25;17.02;;;4.80;99.90;;;;;;5024732;28;20112;-69
2022/11/18 04:07:37;;;;;;;29.38;17.77;;;4.80;99.90;;;;;;5009254;28;20141;-69
2022/11/18 04:10:08;;;;;;;29.55;17.40;;;4.80;99.90;;;;;;4992509;28;20139;-69
2022/11/18 04:12:41;;;;;;;31.88;18.08;;;4.80;99.90;;;;;;5010068;28;20077;-69
2022/11/18 04:15:07;;;;;;;30.33;17.58;;;4.80;99.90;;;;;;5008479;28;20103;-69
2022/11/18 04:17:33;;;;;;;24.67;15.77;;;4.80;99.90;;;;;;5010066;28;20053;-69
2022/11/18 04:19:59;;;;;;;29.25;17.73;;;4.80;99.90;;;;;;5022900;28;20042;-69
2022/11/18 04:22:26;;;;;;;28.10;16.77;;;4.90;99.90;;;;;;5022122;28;20038;-69
2022/11/18 04:24:53;;;;;;;29.50;17.73;;;4.80;99.90;;;;;;5021231;28;20050;-69
2022/11/18 04:27:20;;;;;;;26.75;16.67;;;4.80;99.90;;;;;;5011221;28;20451;-69
2022/11/18 04:29:46;;;;;;;29.17;17.55;;;4.70;99.90;;;;;;4993617;28;20084;-69
2022/11/18 04:32:12;;;;;;;29.55;17.23;;;4.70;99.90;;;;;;5009495;28;20053;-69
2022/11/18 04:34:38;;;;;;;29.00;17.27;;;4.60;99.90;;;;;;4992848;28;20486;-69
2022/11/18 04:37:03;;;;;;;27.45;16.67;;;4.70;99.90;;;;;;5005811;28;20490;-69
2022/11/18 04:39:29;;;;;;;24.70;16.08;;;4.70;99.90;;;;;;4991320;28;20172;-69
2022/11/18 04:41:55;;;;;;;25.60;16.88;;;4.80;99.90;;;;;;4992169;28;20054;-69
2022/11/18 04:44:31;;;;;;;28.38;17.67;;;4.70;99.90;;;;;;5005594;28;20061;-69
2022/11/18 04:46:58;;;;;;;27.77;15.77;;;4.50;99.90;;;;;;5007815;28;20869;-69
2022/11/18 04:49:24;;;;;;;26.33;16.55;;;4.60;99.90;;;;;;5009423;28;20218;-69
2022/11/18 04:51:50;;;;;;;26.20;16.10;;;4.70;99.90;;;;;;5021034;28;20042;-69
2022/11/18 04:54:17;;;;;;;27.35;16.77;;;4.70;99.90;;;;;;5008094;28;20054;-69
2022/11/18 04:56:42;;;;;;;28.88;16.88;;;4.70;99.90;;;;;;4994354;28;20176;-69
2022/11/18 04:59:08;;;;;;;29.33;16.65;;;4.70;99.90;;;;;;4992088;28;20141;-69
2022/11/18 05:01:34;;;;;;;27.38;16.17;;;4.70;99.90;;;;;;5008665;28;20290;-69
2022/11/18 05:04:01;;;;;;;29.23;17.30;;;4.70;99.90;;;;;;5008669;28;20045;-69
2022/11/18 05:06:27;;;;;;;31.67;17.35;;;4.70;99.90;;;;;;4989104;28;20056;-69
2022/11/18 05:08:52;;;;;;;29.60;17.13;;;4.70;99.90;;;;;;5007524;28;20219;-70
2022/11/18 05:14:03;;;;;;;28.40;17.52;;;4.60;99.90;;;;;;5009566;28;20058;-70
2022/11/18 05:16:29;;;;;;;29.10;16.55;;;4.50;99.90;;;;;;4987775;28;20079;-69
2022/11/18 05:18:54;;;;;;;31.88;18.33;;;4.50;99.90;;;;;;5007507;28;20038;-69
2022/11/18 05:21:20;;;;;;;30.45;17.77;;;4.50;99.90;;;;;;5009554;28;20045;-70
2022/11/18 05:23:47;;;;;;;29.67;17.50;;;4.40;99.90;;;;;;4992022;28;20462;-69
2022/11/18 05:26:13;;;;;;;30.90;18.02;;;4.40;99.90;;;;;;5005260;28;20050;-69
2022/11/18 05:28:38;;;;;;;31.10;17.95;;;4.40;99.90;;;;;;5009686;28;20053;-70
2022/11/18 05:31:22;;;;;;;29.00;18.13;;;4.30;99.90;;;;;;5008031;28;20119;-69
2022/11/18 05:33:48;;;;;;;31.73;18.60;;;4.40;99.90;;;;;;5013571;28;20073;-70
2022/11/18 05:36:15;;;;;;;28.15;17.00;;;4.40;99.90;;;;;;5010839;28;20046;-69
2022/11/18 05:38:42;;;;;;;34.28;18.85;;;4.40;99.90;;;;;;4996214;28;20452;-70
2022/11/18 05:41:08;;;;;;;29.75;16.70;;;4.40;99.90;;;;;;5013617;28;20495;-69
2022/11/18 05:43:34;;;;;;;26.13;16.00;;;4.40;99.90;;;;;;5009919;28;20062;-69
2022/11/18 05:45:59;;;;;;;27.35;16.58;;;4.50;99.90;;;;;;5013289;28;20440;-70
2022/11/18 05:48:25;;;;;;;28.55;16.58;;;4.40;99.90;;;;;;4995966;28;20371;-70
2022/11/18 05:50:52;;;;;;;29.80;17.05;;;4.30;99.90;;;;;;5012136;28;20061;-70
2022/11/18 05:53:19;;;;;;;28.08;16.50;;;4.30;99.90;;;;;;5012376;28;20107;-69
2022/11/18 05:56:15;;;;;;;29.05;16.70;;;4.40;99.90;;;;;;4996405;28;20510;-69
2022/11/18 05:58:41;;;;;;;26.85;15.63;;;4.40;99.90;;;;;;5010088;28;20052;-69
2022/11/18 06:01:08;;;;;;;31.08;17.30;;;4.40;99.90;;;;;;5007314;28;20117;-70
2022/11/18 06:03:38;;;;;;;29.75;17.10;;;4.30;99.90;;;;;;5011805;28;20097;-70
2022/11/18 06:06:04;;;;;;;32.55;17.90;;;4.30;99.90;;;;;;5005420;28;20046;-69
2022/11/18 06:08:33;;;;;;;34.13;17.92;;;4.30;99.90;;;;;;5010483;28;20467;-69
2022/11/18 06:10:59;;;;;;;30.48;18.02;;;4.30;99.90;;;;;;5009332;28;20663;-70
2022/11/18 06:13:29;;;;;;;30.05;17.30;;;4.30;99.90;;;;;;5012175;28;20050;-70
2022/11/18 06:15:55;;;;;;;28.88;17.95;;;4.30;99.90;;;;;;5006450;28;20444;-70
2022/11/18 06:18:22;;;;;;;33.83;18.42;;;4.30;99.90;;;;;;4992008;28;20066;-69
2022/11/18 06:20:48;;;;;;;31.90;18.50;;;4.30;99.90;;;;;;4992067;28;20129;-69
2022/11/18 06:23:13;;;;;;;35.95;19.67;;;4.30;99.90;;;;;;4993228;28;20537;-69
2022/11/18 06:25:39;;;;;;;36.80;20.88;;;4.30;99.90;;;;;;4995614;28;20049;-70
2022/11/18 06:28:05;;;;;;;33.35;18.80;;;4.30;99.90;;;;;;4992932;28;20049;-70
2022/11/18 06:30:31;;;;;;;30.98;17.88;;;4.20;99.90;;;;;;4998649;28;20174;-70
2022/11/18 06:32:58;;;;;;;31.25;19.13;;;4.20;99.90;;;;;;4992246;28;20046;-70
2022/11/18 06:35:23;;;;;;;33.33;19.08;;;4.20;99.90;;;;;;4995048;28;20050;-69
2022/11/18 06:37:49;;;;;;;33.67;18.92;;;4.10;99.90;;;;;;5006680;28;20057;-69
2022/11/18 06:40:15;;;;;;;33.67;18.05;;;4.00;99.90;;;;;;4994948;28;20054;-70
2022/11/18 06:45:25;;;;;;;31.88;18.38;;;4.10;99.90;;;;;;5011480;28;20045;-69
2022/11/18 06:47:56;;;;;;;32.53;18.08;;;4.00;99.90;;;;;;5005479;28;20486;-70
2022/11/18 06:50:22;;;;;;;31.75;17.75;;;4.00;99.90;;;;;;5011925;28;20049;-69
2022/11/18 06:52:48;;;;;;;30.50;17.73;;;4.00;99.90;;;;;;5008101;28;20085;-70
2022/11/18 06:55:13;;;;;;;31.23;17.27;;;4.00;99.90;;;;;;4992505;28;20058;-69
2022/11/18 06:57:39;;;;;;;30.23;17.80;;;4.10;99.90;;;;;;5007845;28;20439;-69
2022/11/18 07:00:06;;;;;;;28.75;16.83;;;4.00;99.90;;;;;;5010801;28;20049;-69
2022/11/18 07:02:35;;;;;;;30.98;16.90;;;4.10;99.90;;;;;;4991256;28;20061;-69
2022/11/18 07:05:03;;;;;;;29.60;17.08;;;4.00;99.90;;;;;;4993009;28;20108;-69
2022/11/18 07:07:28;;;;;;;30.45;18.33;;;4.00;99.90;;;;;;5009957;28;20057;-69
2022/11/18 07:09:54;;;;;;;28.73;16.75;;;3.90;99.90;;;;;;5011143;28;20050;-69
2022/11/18 07:12:20;;;;;;;29.13;17.38;;;3.90;99.90;;;;;;4992840;28;20517;-70
2022/11/18 07:14:46;;;;;;;28.17;17.02;;;3.90;99.90;;;;;;4991302;28;20057;-70
2022/11/18 07:17:11;;;;;;;26.83;16.33;;;3.90;99.90;;;;;;4994537;28;20042;-68
2022/11/18 07:19:38;;;;;;;35.55;18.08;;;3.90;99.90;;;;;;5010468;28;20459;-69
2022/11/18 07:22:04;;;;;;;32.70;17.77;;;3.90;99.90;;;;;;5004027;28;20455;-69
2022/11/18 07:24:30;;;;;;;28.33;15.95;;;3.90;99.90;;;;;;5010656;28;20045;-69
2022/11/18 07:26:57;;;;;;;32.00;17.50;;;3.90;99.90;;;;;;5010745;28;20596;-69
2022/11/18 07:29:23;;;;;;;28.52;16.50;;;3.90;99.90;;;;;;5010430;28;20046;-69
2022/11/18 07:31:49;;;;;;;29.75;17.80;;;4.00;99.90;;;;;;5005951;28;20780;-69
2022/11/18 07:34:15;;;;;;;30.67;18.00;;;3.90;99.90;;;;;;5009280;28;20503;-69
2022/11/18 07:36:40;;;;;;;33.13;17.65;;;4.00;99.90;;;;;;5010241;28;20100;-69
2022/11/18 07:39:06;;;;;;;28.13;17.08;;;4.00;99.90;;;;;;5009576;28;20052;-69
2022/11/18 07:41:33;;;;;;;30.48;16.58;;;4.00;99.90;;;;;;5010605;28;20045;-69
2022/11/18 07:44:00;;;;;;;29.48;17.45;;;4.00;99.90;;;;;;5005298;28;20384;-68
2022/11/18 07:46:28;;;;;;;28.08;17.10;;;4.00;99.90;;;;;;4994031;28;20662;-69
2022/11/18 07:48:55;;;;;;;;;;;3.80;99.90;;;;;;4992547;28;20488;-69
2022/11/18 07:51:23;;;;;;;29.75;17.67;;;3.90;99.90;;;;;;4973213;28;19913;-70
2022/11/18 07:53:50;;;;;;;27.90;17.10;;;3.80;99.90;;;;;;5010027;28;20057;-69
2022/11/18 07:56:16;;;;;;;29.25;17.50;;;3.50;99.90;;;;;;5010646;28;20432;-69
2022/11/18 07:58:42;;;;;;;31.52;17.75;;;3.60;99.90;;;;;;5009697;28;20133;-69
2022/11/18 08:01:18;;;;;;;27.23;16.60;;;3.80;99.90;;;;;;5006271;28;20052;-69
2022/11/18 08:03:44;;;;;;;30.50;17.50;;;3.70;99.90;;;;;;5008774;28;20124;-68
2022/11/18 08:06:12;;;;;;;30.80;17.70;;;3.80;99.90;;;;;;5008781;28;20049;-69
2022/11/18 08:08:38;;;;;;;;;;;3.80;99.90;;;;;;5007538;28;20116;-69
2022/11/18 08:11:06;;;;;;;31.80;17.35;;;3.70;99.90;;;;;;5009856;28;19917;-69
2022/11/18 08:13:34;;;;;;;30.35;16.90;;;3.70;99.90;;;;;;4991206;28;20046;-69
2022/11/18 08:16:00;;;;;;;30.25;17.95;;;3.80;99.90;;;;;;5024596;28;20049;-69
2022/11/18 08:18:27;;;;;;;33.05;18.75;;;3.80;99.90;;;;;;5007629;28;20841;-68
2022/11/18 08:20:53;;;;;;;30.77;17.13;;;3.70;99.90;;;;;;5007875;28;20073;-70
2022/11/18 08:23:19;;;;;;;27.15;17.20;;;3.80;99.90;;;;;;5008025;28;20042;-69
2022/11/18 08:25:46;;;;;;;27.73;16.98;;;3.80;99.90;;;;;;5039853;28;20046;-70
2022/11/18 08:28:13;;;;;;;27.77;16.33;;;3.80;99.90;;;;;;5007388;28;20078;-68
2022/11/18 08:30:40;;;;;;;27.85;16.73;;;3.80;99.90;;;;;;5019504;28;20070;-69
2022/11/18 08:33:07;;;;;;;30.77;18.45;;;3.80;99.90;;;;;;4991693;28;20046;-69
2022/11/18 08:35:33;;;;;;;29.40;17.65;;;3.90;99.90;;;;;;5008855;28;20119;-68
2022/11/18 08:37:59;;;;;;;29.80;18.33;;;3.70;99.90;;;;;;5010148;28;20392;-69
2022/11/18 08:40:24;;;;;;;31.52;18.50;;;3.60;99.90;;;;;;5008322;28;20357;-69
2022/11/18 08:42:50;;;;;;;25.63;16.95;;;3.70;99.90;;;;;;4989445;28;20339;-69
2022/11/18 08:45:16;;;;;;;28.33;17.77;;;3.70;99.90;;;;;;4976295;28;20061;-69
2022/11/18 08:47:42;;;;;;;24.15;15.48;;;3.60;99.90;;;;;;5009066;28;20046;-69
2022/11/18 08:50:08;;;;;;;28.55;16.00;;;3.70;99.90;;;;;;5004246;28;20049;-69
2022/11/18 08:52:34;;;;;;;23.10;14.57;;;3.60;99.90;;;;;;5009910;28;20053;-69
2022/11/18 08:55:00;;;;;;;23.08;14.70;;;3.70;99.90;;;;;;4991540;28;20388;-69
2022/11/18 08:57:26;;;;;;;25.33;14.15;;;3.60;99.90;;;;;;5024937;28;20046;-68
2022/11/18 08:59:53;;;;;;;24.40;14.63;;;3.60;99.90;;;;;;5009289;28;20045;-72
2022/11/18 09:02:21;;;;;;;21.98;13.35;;;3.50;99.90;;;;;;5007605;28;20054;-70
2022/11/18 09:04:47;;;;;;;22.10;13.75;;;3.50;99.90;;;;;;4990393;28;20056;-70
2022/11/18 09:07:16;;;;;;;23.05;15.05;;;3.50;99.90;;;;;;5006246;28;20080;-70
2022/11/18 09:09:42;;;;;;;22.85;14.45;;;3.40;99.90;;;;;;5008559;28;20050;-71
2022/11/18 09:12:08;;;;;;;23.77;15.23;;;3.40;99.90;;;;;;5008270;28;20075;-70
2022/11/18 09:14:34;;;;;;;25.67;15.65;;;3.50;99.90;;;;;;5001643;28;20061;-70
2022/11/18 09:17:00;;;;;;;26.33;14.98;;;3.30;99.90;;;;;;5006660;28;20045;-70
2022/11/18 09:19:26;;;;;;;26.95;16.55;;;3.30;99.90;;;;;;5007483;28;20815;-71
2022/11/18 09:21:52;;;;;;;24.98;16.17;;;3.30;99.90;;;;;;4992270;28;20073;-71
2022/11/18 09:24:18;;;;;;;26.25;15.75;;;3.50;99.90;;;;;;5006584;28;20128;-71
2022/11/18 09:26:45;;;;;;;28.80;16.95;;;3.30;99.90;;;;;;5008000;28;20053;-71
2022/11/18 09:29:11;;;;;;;25.23;15.70;;;3.40;99.90;;;;;;4987918;28;20057;-71
2022/11/18 09:31:37;;;;;;;28.33;17.20;;;3.50;99.90;;;;;;5023447;28;20391;-71
2022/11/18 09:34:04;;;;;;;26.73;16.25;;;3.40;99.90;;;;;;4992264;28;20050;-71
2022/11/18 09:36:30;;;;;;;29.42;17.23;;;3.50;99.90;;;;;;5005099;28;20368;-71
2022/11/18 09:38:55;;;;;;;30.60;16.88;;;3.50;99.90;;;;;;5008693;28;20038;-71
2022/11/18 09:41:40;;;;;;;35.08;17.75;;;3.40;99.90;;;;;;5008258;28;20345;-71
2022/11/18 09:44:21;;;;;;;29.45;19.10;;;3.30;99.90;;;;;;5025138;28;20053;-71
2022/11/18 09:47:11;;;;;;;35.15;20.02;;;3.30;99.90;;;;;;5002020;28;20755;-71
2022/11/18 09:49:42;;;;;;;36.70;21.55;;;3.40;99.90;;;;;;5008245;28;20056;-71
2022/11/18 09:52:28;;;;;;;35.63;23.65;;;3.30;99.90;;;;;;4992132;28;20098;-71
2022/11/18 09:54:54;;;;;;;40.55;23.90;;;3.10;99.90;;;;;;5007412;28;20356;-71
2022/11/18 09:57:40;;;;;;;34.60;21.33;;;3.20;99.90;;;;;;5008331;28;20053;-71
2022/11/18 10:00:16;;;;;;;34.00;20.67;;;3.20;99.90;;;;;;5008648;28;20074;-70
2022/11/18 10:03:13;;;;;;;34.83;21.67;;;3.10;99.90;;;;;;4992321;28;20057;-71
2022/11/18 10:06:13;;;;;;;35.50;21.90;;;3.10;99.90;;;;;;5007634;28;20104;-71
2022/11/18 10:08:50;;;;;;;35.55;21.33;;;3.20;99.90;;;;;;5009159;28;20046;-71
2022/11/18 10:11:17;;;;;;;36.70;22.10;;;3.20;99.90;;;;;;4998195;28;20479;-71
2022/11/18 10:14:02;;;;;;;35.83;22.15;;;3.20;99.90;;;;;;5012452;28;20042;-71
2022/11/18 10:17:03;;;;;;;33.83;21.10;;;3.10;99.90;;;;;;5028437;28;20125;-71
2022/11/18 10:19:46;;;;;;;34.10;21.05;;;3.00;99.90;;;;;;5012445;28;20051;-71
2022/11/18 10:22:21;;;;;;;35.00;21.77;;;3.00;99.90;;;;;;5009342;28;20049;-71
2022/11/18 10:24:53;;;;;;;33.95;20.48;;;3.00;99.90;;;;;;5010066;28;20042;-69
2022/11/18 10:27:20;;;;;;;33.40;19.88;;;3.10;99.90;;;;;;4990405;28;20133;-70
2022/11/18 10:29:54;;;;;;;32.90;20.37;;;3.10;99.90;;;;;;5010984;28;20058;-65
2022/11/18 10:32:20;;;;;;;33.63;21.23;;;3.10;99.90;;;;;;4993331;28;20423;-64
2022/11/18 10:34:56;;;;;;;32.53;19.67;;;3.10;99.90;;;;;;5010510;28;20156;-66
2022/11/18 10:37:36;;;;;;;32.00;19.42;;;3.20;99.90;;;;;;5007173;28;20046;-65
2022/11/18 10:40:04;;;;;;;31.52;19.38;;;3.00;99.90;;;;;;5010929;28;20050;-64
2022/11/18 10:42:40;;;;;;;30.73;19.20;;;3.00;99.90;;;;;;5008610;28;20080;-65
2022/11/18 10:45:21;;;;;;;30.48;18.52;;;3.00;99.90;;;;;;5008208;28;20050;-65
2022/11/18 10:48:08;;;;;;;31.63;18.40;;;3.00;99.90;;;;;;5024264;28;20400;-69
2022/11/18 10:50:39;;;;;;;29.35;18.58;;;3.00;99.90;;;;;;5026169;28;20084;-69
2022/11/18 10:53:24;;;;;;;31.70;19.48;;;3.00;99.90;;;;;;5009171;28;20407;-70
2022/11/18 10:55:57;;;;;;;30.02;19.05;;;3.00;99.90;;;;;;5010886;28;20045;-70
2022/11/18 10:58:24;;;;;;;30.10;19.00;;;3.10;99.90;;;;;;5006754;28;20053;-69
2022/11/18 11:00:51;;;;;;;33.83;20.17;;;3.10;99.90;;;;;;5024896;28;20416;-69
2022/11/18 11:03:25;;;;;;;29.63;19.35;;;3.00;99.90;;;;;;5010443;28;20052;-69
2022/11/18 11:06:14;;;;;;;30.98;19.90;;;3.00;99.90;;;;;;5011082;28;20050;-70
2022/11/18 11:08:57;;;;;;;31.40;19.65;;;3.00;99.90;;;;;;5009507;28;20509;-69
2022/11/18 11:11:27;;;;;;;32.67;19.80;;;3.00;99.90;;;;;;5009825;28;20384;-70
2022/11/18 11:13:57;;;;;;;35.55;21.60;;;3.00;99.90;;;;;;4994191;28;20479;-69
2022/11/18 11:16:22;;;;;;;34.33;20.52;;;3.10;99.90;;;;;;5010318;28;20065;-69
2022/11/18 11:18:52;;;;;;;31.10;20.23;;;3.10;99.90;;;;;;4993814;28;20675;-69
2022/11/18 11:21:19;;;;;;;32.05;20.80;;;3.10;99.90;;;;;;5004745;28;20046;-69
2022/11/18 11:23:45;;;;;;;31.75;19.60;;;3.10;99.90;;;;;;4989645;28;20564;-69
2022/11/18 11:26:27;;;;;;;34.53;20.60;;;3.20;99.90;;;;;;4987805;28;20077;-69
2022/11/18 11:29:11;;;;;;;29.10;17.80;;;3.20;99.90;;;;;;5008409;28;20050;-69
2022/11/18 11:32:17;;;;;;;27.05;16.60;;;3.10;99.90;;;;;;5022912;28;20073;-69
2022/11/18 11:35:03;;;;;;;28.00;17.88;;;3.10;99.90;;;;;;5002625;28;20041;-69
2022/11/18 11:37:57;;;;;;;26.83;17.38;;;3.10;99.90;;;;;;5006116;28;20046;-70
2022/11/18 11:40:38;;;;;;;26.25;16.67;;;3.10;99.90;;;;;;4991155;28;20042;-70
2022/11/18 11:43:34;;;;;;;27.45;16.40;;;3.20;99.90;;;;;;4985790;28;20077;-70
2022/11/18 11:46:21;;;;;;;25.88;15.73;;;3.20;99.90;;;;;;5007232;28;20042;-68
2022/11/18 11:48:59;;;;;;;24.67;16.23;;;3.20;99.90;;;;;;5006204;28;20042;-69
2022/11/18 11:51:36;;;;;;;27.23;17.35;;;3.20;99.90;;;;;;5005765;28;20045;-69
2022/11/18 11:54:06;;;;;;;27.95;17.35;;;3.20;99.90;;;;;;5006296;28;20073;-69
2022/11/18 11:56:39;;;;;;;28.60;17.98;;;3.30;99.90;;;;;;4974188;28;20054;-69
2022/11/18 11:59:14;;;;;;;25.92;16.77;;;3.20;99.90;;;;;;4987430;28;20084;-69
2022/11/18 12:02:06;;;;;;;31.48;18.55;;;3.20;99.90;;;;;;5006206;28;20355;-69
2022/11/18 12:04:53;;;;;;;29.90;19.40;;;3.10;99.90;;;;;;4990447;28;20045;-69
2022/11/18 12:07:29;;;;;;;32.13;19.42;;;3.00;99.90;;;;;;5005788;28;20471;-70
2022/11/18 12:10:27;;;;;;;32.70;19.27;;;2.90;99.90;;;;;;4986891;28;20117;-69
2022/11/18 12:13:27;;;;;;;28.95;18.33;;;2.80;99.90;;;;;;5006568;28;20157;-69
2022/11/18 12:16:34;;;;;;;29.63;17.63;;;2.80;99.90;;;;;;5005613;28;20531;-70
2022/11/18 12:19:10;;;;;;;28.88;16.48;;;2.90;99.90;;;;;;5008515;28;20162;-69
2022/11/18 12:21:45;;;;;;;26.33;16.85;;;2.90;99.90;;;;;;4991476;28;20531;-69
2022/11/18 12:24:29;;;;;;;27.10;16.15;;;3.00;99.90;;;;;;5010309;28;20050;-68
2022/11/18 12:26:56;;;;;;;26.65;17.33;;;2.90;99.90;;;;;;5009800;28;20419;-69
2022/11/18 12:29:23;;;;;;;25.67;17.27;;;2.80;99.90;;;;;;5010175;28;20046;-71
2022/11/18 12:31:56;;;;;;;24.13;15.35;;;2.60;99.90;;;;;;5004074;28;20060;-69
2022/11/18 12:34:25;;;;;;;25.08;16.02;;;2.60;99.90;;;;;;5010063;28;20069;-69
2022/11/18 12:36:54;;;;;;;24.73;16.23;;;2.70;99.90;;;;;;5008957;28;20471;-69
2022/11/18 12:39:23;;;;;;;26.67;16.63;;;2.70;99.90;;;;;;5043120;28;20042;-68
2022/11/18 12:44:44;;;;;;;25.02;15.43;;;2.80;99.90;;;;;;5009895;28;20404;-69
2022/11/18 12:47:11;;;;;;;25.85;17.00;;;2.70;99.90;;;;;;5009535;28;20046;-69
2022/11/18 12:49:44;;;;;;;25.38;16.35;;;2.70;99.90;;;;;;5006796;28;20046;-69
2022/11/18 12:52:28;;;;;;;26.17;16.98;;;2.70;99.90;;;;;;5004082;28;20046;-69
2022/11/18 12:55:00;;;;;;;28.48;17.92;;;2.70;99.90;;;;;;5007376;28;20420;-69
2022/11/18 12:57:33;;;;;;;27.42;17.55;;;2.70;99.90;;;;;;5008762;28;20042;-69
2022/11/18 13:00:27;;;;;;;24.33;16.42;;;2.70;99.90;;;;;;5007307;28;20037;-70
2022/11/18 13:02:54;;;;;;;28.17;17.15;;;2.70;99.90;;;;;;5013415;28;20049;-69
2022/11/18 13:05:25;;;;;;;27.00;18.02;;;2.60;99.90;;;;;;5009053;28;20220;-69
2022/11/18 13:08:13;;;;;;;28.80;18.85;;;2.70;99.90;;;;;;5006293;28;20137;-69
2022/11/18 13:10:47;;;;;;;28.00;18.08;;;2.60;99.90;;;;;;4987859;28;20046;-68
2022/11/18 13:13:25;;;;;;;28.42;19.42;;;2.50;99.90;;;;;;5007503;28;20103;-69
2022/11/18 13:18:53;;;;;;;31.08;19.65;;;2.50;99.90;;;;;;5006705;28;20387;-69
2022/11/18 13:24:19;;;;;;;35.17;21.88;;;2.50;99.90;;;;;;5007444;28;20875;-68
2022/11/18 13:26:52;;;;;;;36.45;21.63;;;2.50;99.90;;;;;;5005941;28;20057;-69
2022/11/18 13:29:25;;;;;;;37.78;23.73;;;2.40;99.90;;;;;;5006250;28;20153;-69
2022/11/18 13:32:10;;;;;;;38.47;23.48;;;2.50;99.90;;;;;;4991151;28;20045;-69